Time;durP1;ratioP1;P1;durP2;ratioP2;P2;SDS_P1;SDS_P2;PMS_P1;PMS_P2;Temp;Humidity;BMP_temperature;BMP_pressure;BME280_temperature;BME280_humidity;BME280_pressure;Samples;Min_cycle;Max_cycle;Signal;HPM_P1;HPM_P2
2023/02/05 00:00:54;;;;;;;;;;;;;;;;;;5035117;28;19975;-73
2023/02/05 00:03:20;;;;;;;;;;;;;;;;;;5035234;28;20341;-73
2023/02/05 00:05:46;;;;;;;;;;;;;;;;;;5035165;28;19953;-75
2023/02/05 00:08:12;;;;;;;;;;;;;;;;;;5033669;28;19920;-75
2023/02/05 00:10:38;;;;;;;;;;;;;;;;;;5034927;28;19910;-74
2023/02/05 00:13:04;;;;;;;;;;;;;;;;;;5034850;28;19909;-74
2023/02/05 00:15:30;;;;;;;;;;;;;;;;;;5034654;28;20016;-74
2023/02/05 00:17:56;;;;;;;;;;;;;;;;;;5034773;28;19944;-74
2023/02/05 00:20:22;;;;;;;;;;;;;;;;;;5034731;28;19963;-75
2023/02/05 00:22:48;;;;;;;;;;;;;;;;;;5034633;28;19918;-75
2023/02/05 00:25:14;;;;;;;;;;;;;;;;;;5034761;28;19915;-75
2023/02/05 00:27:40;;;;;;;;;;;;;;;;;;5034607;28;19956;-76
2023/02/05 00:30:06;;;;;;;;;;;;;;;;;;5034543;28;19909;-75
2023/02/05 00:32:31;;;;;;;;;;;;;;;;;;5034683;28;19917;-73
2023/02/05 00:34:57;;;;;;;;;;;;;;;;;;5034466;28;19959;-75
2023/02/05 00:37:23;;;;;;;;;;;;;;;;;;5034617;28;20339;-74
2023/02/05 00:39:49;;;;;;;;;;;;;;;;;;5033107;28;19999;-75
2023/02/05 00:42:15;;;;;;;;;;;;;;;;;;5032972;28;19913;-74
2023/02/05 00:44:41;;;;;;;;;;;;;;;;;;5034664;28;20285;-73
2023/02/05 00:47:07;;;;;;;;;;;;;;;;;;5033838;28;20437;-75
2023/02/05 00:49:33;;;;;;;;;;;;;;;;;;5034275;28;19931;-74
2023/02/05 00:51:59;;;;;;;;;;;;;;;;;;5034163;28;19983;-74
2023/02/05 00:54:25;;;;;;;;;;;;;;;;;;5034162;28;20365;-74
2023/02/05 00:56:51;;;;;;;;;;;;;;;;;;5034216;28;19959;-74
2023/02/05 00:59:17;;;;;;;;;;;;;;;;;;5034090;28;19909;-74
2023/02/05 01:01:42;;;;;;;;;;;;;;;;;;5034053;28;20366;-75
2023/02/05 01:04:08;;;;;;;;;;;;;;;;;;5033966;28;19915;-73
2023/02/05 01:06:34;;;;;;;;;;;;;;;;;;5033926;28;20009;-74
2023/02/05 01:09:00;;;;;;;;;;;;;;;;;;5033925;28;19948;-74
2023/02/05 01:11:26;;;;;;;;;;;;;;;;;;5033861;28;20396;-74
2023/02/05 01:13:52;;;;;;;;;;;;;;;;;;5032382;28;19913;-73
2023/02/05 01:16:18;;;;;;;;;;;;;;;;;;5033852;28;19935;-75
2023/02/05 01:18:44;;;;;;;;;;;;;;;;;;5033809;28;19913;-74
2023/02/05 01:21:10;;;;;;;;;;;;;;;;;;5034021;28;20277;-73
2023/02/05 01:23:36;;;;;;;;;;;;;;;;;;5032383;28;19984;-75
2023/02/05 01:26:02;;;;;;;;;;;;;;;;;;5032408;28;19920;-75
2023/02/05 01:28:28;;;;;;;;;;;;;;;;;;5034034;28;19910;-75
2023/02/05 01:30:54;;;;;;;;;;;;;;;;;;5033880;28;19916;-75
2023/02/05 01:33:20;;;;;;;;;;;;;;;;;;5033806;28;19909;-74
2023/02/05 01:35:45;;;;;;;;;;;;;;;;;;5033591;28;20427;-74
2023/02/05 01:38:11;;;;;;;;;;;;;;;;;;5032314;28;19936;-74
2023/02/05 01:40:37;;;;;;;;;;;;;;;;;;5033812;28;19909;-76
2023/02/05 01:43:03;;;;;;;;;;;;;;;;;;5033426;28;20016;-74
2023/02/05 01:45:31;;;;;;;;;;;;;;;;;;5032228;28;19909;-75
2023/02/05 01:47:57;;;;;;;;;;;;;;;;;;5032235;28;19909;-74
2023/02/05 01:50:22;;;;;;;;;;;;;;;;;;5033466;28;20303;-76
2023/02/05 01:52:48;;;;;;;;;;;;;;;;;;5033612;28;20365;-74
2023/02/05 01:55:14;;;;;;;;;;;;;;;;;;5033427;28;19976;-73
2023/02/05 01:57:40;;;;;;;;;;;;;;;;;;5034217;28;20003;-75
2023/02/05 02:00:06;;;;;;;;;;;;;;;;;;5037533;28;19931;-75
2023/02/05 02:02:32;;;;;;;;;;;;;;;;;;5036022;28;19963;-74
2023/02/05 02:04:58;;;;;;;;;;;;;;;;;;5037383;28;19909;-74
2023/02/05 02:07:24;;;;;;;;;;;;;;;;;;5037274;28;20320;-76
2023/02/05 02:09:50;;;;;;;;;;;;;;;;;;5037220;28;20434;-74
2023/02/05 02:12:16;;;;;;;;;;;;;;;;;;5037577;28;20421;-74
2023/02/05 02:14:42;;;;;;;;;;;;;;;;;;5035635;28;20377;-74
2023/02/05 02:17:08;;;;;;;;;;;;;;;;;;5037098;28;19917;-74
2023/02/05 02:19:34;;;;;;;;;;;;;;;;;;5037056;28;20000;-75
2023/02/05 02:22:00;;;;;;;;;;;;;;;;;;5035610;28;20346;-75
2023/02/05 02:24:25;;;;;;;;;;;;;;;;;;5036954;28;19916;-75
2023/02/05 02:26:51;;;;;;;;;;;;;;;;;;5037320;28;19916;-73
2023/02/05 02:29:17;;;;;;;;;;;;;;;;;;5037155;28;19909;-73
2023/02/05 02:31:43;;;;;;;;;;;;;;;;;;5037047;28;19909;-75
2023/02/05 02:34:09;;;;;;;;;;;;;;;;;;5036767;28;19916;-73
2023/02/05 02:36:35;;;;;;;;;;;;;;;;;;5036709;28;20000;-75
2023/02/05 02:39:01;;;;;;;;;;;;;;;;;;5036693;28;19945;-74
2023/02/05 02:41:27;;;;;;;;;;;;;;;;;;5036907;28;20324;-75
2023/02/05 02:43:53;;;;;;;;;;;;;;;;;;5036697;28;19909;-74
2023/02/05 02:46:19;;;;;;;;;;;;;;;;;;5036546;28;20392;-74
2023/02/05 02:48:45;;;;;;;;;;;;;;;;;;5036721;28;19909;-74
2023/02/05 02:51:10;;;;;;;;;;;;;;;;;;5036454;28;19909;-74
2023/02/05 02:53:36;;;;;;;;;;;;;;;;;;5036608;28;19913;-75
2023/02/05 02:56:02;;;;;;;;;;;;;;;;;;5036392;28;19913;-74
2023/02/05 02:58:28;;;;;;;;;;;;;;;;;;5036291;28;19921;-74
2023/02/05 03:00:54;;;;;;;;;;;;;;;;;;5036470;28;19917;-75
2023/02/05 03:03:20;;;;;;;;;;;;;;;;;;5034911;28;20277;-74
2023/02/05 03:05:46;;;;;;;;;;;;;;;;;;5036375;28;20413;-75
2023/02/05 03:08:12;;;;;;;;;;;;;;;;;;5034803;28;19913;-74
2023/02/05 03:10:42;;;;;;;;;;;;;;;;;;5035775;28;19909;-74
2023/02/05 03:13:08;;;;;;;;;;;;;;;;;;5034800;28;19916;-75
2023/02/05 03:15:34;;;;;;;;;;;;;;;;;;5035780;28;19917;-75
2023/02/05 03:18:00;;;;;;;;;;;;;;;;;;5034659;28;20297;-74
2023/02/05 03:20:26;;;;;;;;;;;;;;;;;;5036009;28;19910;-73
2023/02/05 03:22:52;;;;;;;;;;;;;;;;;;5035766;28;20336;-74
2023/02/05 03:25:17;;;;;;;;;;;;;;;;;;5036017;28;19909;-74
2023/02/05 03:27:43;;;;;;;;;;;;;;;;;;5035740;28;20012;-74
2023/02/05 03:30:09;;;;;;;;;;;;;;;;;;5035734;28;19952;-74
2023/02/05 03:32:35;;;;;;;;;;;;;;;;;;5035736;28;19910;-74
2023/02/05 03:35:01;;;;;;;;;;;;;;;;;;5035663;28;19917;-74
2023/02/05 03:37:27;;;;;;;;;;;;;;;;;;5035756;28;19909;-75
2023/02/05 03:39:53;;;;;;;;;;;;;;;;;;5035544;28;20285;-77
2023/02/05 03:42:19;;;;;;;;;;;;;;;;;;5035544;28;19919;-74
2023/02/05 03:44:45;;;;;;;;;;;;;;;;;;5035456;28;19909;-76
2023/02/05 03:47:12;;;;;;;;;;;;;;;;;;5035746;28;19910;-75
2023/02/05 03:49:38;;;;;;;;;;;;;;;;;;5035590;28;19913;-73
2023/02/05 03:52:04;;;;;;;;;;;;;;;;;;5035345;28;19916;-75
2023/02/05 03:54:30;;;;;;;;;;;;;;;;;;5035734;28;20312;-74
2023/02/05 03:56:56;;;;;;;;;;;;;;;;;;5035179;28;19916;-76
2023/02/05 03:59:22;;;;;;;;;;;;;;;;;;5035390;28;20000;-74
2023/02/05 04:01:48;;;;;;;;;;;;;;;;;;5035144;28;19986;-74
2023/02/05 04:04:13;;;;;;;;;;;;;;;;;;5035139;28;19909;-74
2023/02/05 04:06:39;;;;;;;;;;;;;;;;;;5035303;28;19910;-74
2023/02/05 04:09:05;;;;;;;;;;;;;;;;;;5035176;28;20003;-75
2023/02/05 04:11:31;;;;;;;;;;;;;;;;;;5034931;28;19953;-75
2023/02/05 04:13:57;;;;;;;;;;;;;;;;;;5034722;28;19966;-74
2023/02/05 04:16:23;;;;;;;;;;;;;;;;;;5033369;28;20396;-75
2023/02/05 04:18:49;;;;;;;;;;;;;;;;;;5034783;28;20393;-74
2023/02/05 04:21:15;;;;;;;;;;;;;;;;;;5032675;28;19909;-75
2023/02/05 04:23:41;;;;;;;;;;;;;;;;;;5034656;28;20349;-75
2023/02/05 04:26:07;;;;;;;;;;;;;;;;;;5034727;28;20431;-75
2023/02/05 04:28:33;;;;;;;;;;;;;;;;;;5034982;28;19909;-75
2023/02/05 04:30:59;;;;;;;;;;;;;;;;;;5034585;28;19909;-75
2023/02/05 04:33:25;;;;;;;;;;;;;;;;;;5034498;28;19936;-74
2023/02/05 04:35:50;;;;;;;;;;;;;;;;;;5033205;28;19975;-76
2023/02/05 04:38:16;;;;;;;;;;;;;;;;;;5034482;28;19910;-74
2023/02/05 04:40:42;;;;;;;;;;;;;;;;;;5034432;28;19921;-74
2023/02/05 04:43:08;;;;;;;;;;;;;;;;;;5034441;28;19921;-75
2023/02/05 04:45:34;;;;;;;;;;;;;;;;;;5034340;28;19916;-76
2023/02/05 04:48:01;;;;;;;;;;;;;;;;;;5034380;28;19951;-74
2023/02/05 04:50:26;;;;;;;;;;;;;;;;;;5034264;28;19910;-74
2023/02/05 04:52:52;;;;;;;;;;;;;;;;;;5034514;28;19936;-74
2023/02/05 04:55:18;;;;;;;;;;;;;;;;;;5034098;28;20266;-74
2023/02/05 04:57:44;;;;;;;;;;;;;;;;;;5034326;28;19909;-75
2023/02/05 05:00:10;;;;;;;;;;;;;;;;;;5034074;28;19916;-76
2023/02/05 05:02:36;;;;;;;;;;;;;;;;;;5034397;28;19913;-74
2023/02/05 05:05:02;;;;;;;;;;;;;;;;;;5032717;28;20008;-74
2023/02/05 05:07:28;;;;;;;;;;;;;;;;;;5034131;28;19947;-75
2023/02/05 05:09:54;;;;;;;;;;;;;;;;;;5033936;28;19910;-74
2023/02/05 05:12:20;;;;;;;;;;;;;;;;;;5033901;28;20320;-74
2023/02/05 05:14:46;;;;;;;;;;;;;;;;;;5033749;28;20432;-75
2023/02/05 05:17:13;;;;;;;;;;;;;;;;;;5033810;28;20056;-73
2023/02/05 05:19:39;;;;;;;;;;;;;;;;;;5032522;28;20388;-74
2023/02/05 05:22:05;;;;;;;;;;;;;;;;;;5033713;28;19917;-75
2023/02/05 05:24:31;;;;;;;;;;;;;;;;;;5033751;28;19955;-74
2023/02/05 05:26:57;;;;;;;;;;;;;;;;;;5033723;28;20296;-73
2023/02/05 05:29:23;;;;;;;;;;;;;;;;;;5033874;28;19909;-74
2023/02/05 05:31:49;;;;;;;;;;;;;;;;;;5033583;28;19916;-75
2023/02/05 05:34:15;;;;;;;;;;;;;;;;;;5033618;28;19909;-75
2023/02/05 05:36:42;;;;;;;;;;;;;;;;;;5033673;28;19932;-75
2023/02/05 05:44:37;;;;;;;;;;;;;;;;;;5033340;28;19975;-75
2023/02/05 05:47:03;;;;;;;;;;;;;;;;;;5033541;28;20380;-75
2023/02/05 05:49:29;;;;;;;;;;;;;;;;;;5033884;28;19916;-74
2023/02/05 05:51:55;;;;;;;;;;;;;;;;;;5033727;28;19909;-74
2023/02/05 05:54:21;;;;;;;;;;;;;;;;;;5033479;28;19909;-74
2023/02/05 05:56:48;;;;;;;;;;;;;;;;;;5033426;28;19948;-75
2023/02/05 05:59:14;;;;;;;;;;;;;;;;;;5033437;28;19958;-74
2023/02/05 06:01:40;;;;;;;;;;;;;;;;;;5032043;28;19909;-75
2023/02/05 06:04:06;;;;;;;;;;;;;;;;;;5033532;28;19952;-74
2023/02/05 06:06:32;;;;;;;;;;;;;;;;;;5033395;28;19932;-75
2023/02/05 06:08:57;;;;;;;;;;;;;;;;;;5033374;28;20296;-74
2023/02/05 06:11:23;;;;;;;;;;;;;;;;;;5033298;28;19909;-75
2023/02/05 06:13:49;;;;;;;;;;;;;;;;;;5031589;28;19913;-74
2023/02/05 06:16:15;;;;;;;;;;;;;;;;;;5033273;28;19916;-74
2023/02/05 06:18:41;;;;;;;;;;;;;;;;;;5033222;28;20320;-75
2023/02/05 06:21:08;;;;;;;;;;;;;;;;;;5033472;28;19999;-74
2023/02/05 06:23:34;;;;;;;;;;;;;;;;;;5033116;28;19921;-74
2023/02/05 06:26:00;;;;;;;;;;;;;;;;;;5033316;28;20335;-74
2023/02/05 06:28:26;;;;;;;;;;;;;;;;;;5033189;28;19910;-73
2023/02/05 06:30:52;;;;;;;;;;;;;;;;;;5033093;28;19940;-75
2023/02/05 06:33:18;;;;;;;;;;;;;;;;;;5033334;28;19959;-74
2023/02/05 06:35:44;;;;;;;;;;;;;;;;;;5033082;28;20004;-74
2023/02/05 06:38:10;;;;;;;;;;;;;;;;;;5033176;28;19975;-74
2023/02/05 06:40:36;;;;;;;;;;;;;;;;;;5033066;28;19909;-76
2023/02/05 06:43:02;;;;;;;;;;;;;;;;;;5031736;28;20388;-74
2023/02/05 06:45:27;;;;;;;;;;;;;;;;;;5036113;28;19909;-74
2023/02/05 06:47:54;;;;;;;;;;;;;;;;;;5035242;28;19976;-75
2023/02/05 06:50:20;;;;;;;;;;;;;;;;;;5036450;28;19909;-74
2023/02/05 06:52:46;;;;;;;;;;;;;;;;;;5036675;28;19956;-75
2023/02/05 06:55:12;;;;;;;;;;;;;;;;;;5035022;28;20296;-75
2023/02/05 06:57:38;;;;;;;;;;;;;;;;;;5036921;28;19909;-75
2023/02/05 07:00:04;;;;;;;;;;;;;;;;;;5036297;28;20357;-74
2023/02/05 07:02:30;;;;;;;;;;;;;;;;;;5036200;28;19963;-74
2023/02/05 07:04:56;;;;;;;;;;;;;;;;;;5036232;28;19916;-75
2023/02/05 07:07:22;;;;;;;;;;;;;;;;;;5036427;28;19913;-74
2023/02/05 07:09:48;;;;;;;;;;;;;;;;;;5034869;28;19909;-75
2023/02/05 07:12:14;;;;;;;;;;;;;;;;;;5034828;28;19909;-74
2023/02/05 07:14:40;;;;;;;;;;;;;;;;;;5035857;28;20043;-75
2023/02/05 07:17:06;;;;;;;;;;;;;;;;;;5036044;28;20286;-73
2023/02/05 07:19:32;;;;;;;;;;;;;;;;;;5034658;28;19919;-75
2023/02/05 07:21:58;;;;;;;;;;;;;;;;;;5035833;28;20008;-73
2023/02/05 07:24:24;;;;;;;;;;;;;;;;;;5036084;28;19959;-73
2023/02/05 07:26:50;;;;;;;;;;;;;;;;;;5035865;28;19909;-74
2023/02/05 07:29:16;;;;;;;;;;;;;;;;;;5034553;28;19909;-74
2023/02/05 07:31:42;;;;;;;;;;;;;;;;;;5035742;28;19952;-74
2023/02/05 07:34:07;;;;;;;;;;;;;;;;;;5035723;28;20008;-74
2023/02/05 07:36:33;;;;;;;;;;;;;;;;;;5035988;28;19909;-74
2023/02/05 07:38:59;;;;;;;;;;;;;;;;;;5035638;28;19913;-74
2023/02/05 07:41:25;;;;;;;;;;;;;;;;;;5035611;28;20004;-74
2023/02/05 07:43:51;;;;;;;;;;;;;;;;;;5034125;28;19951;-75
2023/02/05 07:46:17;;;;;;;;;;;;;;;;;;5036034;28;20357;-74
2023/02/05 07:48:43;;;;;;;;;;;;;;;;;;5035404;28;19917;-75
2023/02/05 07:51:09;;;;;;;;;;;;;;;;;;5035416;28;19909;-75
2023/02/05 07:53:35;;;;;;;;;;;;;;;;;;5035312;28;20310;-74
2023/02/05 07:56:01;;;;;;;;;;;;;;;;;;5032695;28;20465;-75
2023/02/05 07:58:27;;;;;;;;;;;;;;;;;;5035183;28;19967;-76
2023/02/05 08:00:53;;;;;;;;;;;;;;;;;;5033858;28;19913;-74
2023/02/05 08:03:19;;;;;;;;;;;;;;;;;;5035067;28;19913;-73
2023/02/05 08:05:44;;;;;;;;;;;;;;;;;;5035109;28;20518;-74
2023/02/05 08:08:10;;;;;;;;;;;;;;;;;;5035377;28;19948;-75
2023/02/05 08:10:36;;;;;;;;;;;;;;;;;;5033701;28;19917;-74
2023/02/05 08:13:02;;;;;;;;;;;;;;;;;;5035070;28;19913;-74
2023/02/05 08:15:28;;;;;;;;;;;;;;;;;;5034674;28;19916;-74
2023/02/05 08:17:54;;;;;;;;;;;;;;;;;;5034900;28;19909;-74
2023/02/05 08:20:21;;;;;;;;;;;;;;;;;;5034841;28;19931;-74
2023/02/05 08:22:47;;;;;;;;;;;;;;;;;;5034665;28;19918;-74
2023/02/05 08:25:12;;;;;;;;;;;;;;;;;;5034669;28;19917;-75
2023/02/05 08:27:38;;;;;;;;;;;;;;;;;;5033372;28;19909;-75
2023/02/05 08:30:04;;;;;;;;;;;;;;;;;;5034601;28;19909;-76
2023/02/05 08:32:30;;;;;;;;;;;;;;;;;;5034518;28;19909;-74
2023/02/05 08:34:57;;;;;;;;;;;;;;;;;;5034495;28;19913;-74
2023/02/05 08:37:23;;;;;;;;;;;;;;;;;;5034460;28;19971;-74
2023/02/05 08:39:49;;;;;;;;;;;;;;;;;;5033159;28;20358;-75
2023/02/05 08:42:15;;;;;;;;;;;;;;;;;;5034320;28;19913;-74
2023/02/05 08:44:41;;;;;;;;;;;;;;;;;;5034399;28;19909;-75
2023/02/05 08:47:07;;;;;;;;;;;;;;;;;;5033034;28;19979;-75
2023/02/05 08:49:33;;;;;;;;;;;;;;;;;;5034273;28;20266;-75
2023/02/05 08:51:59;;;;;;;;;;;;;;;;;;5032912;28;19909;-75
2023/02/05 08:54:25;;;;;;;;;;;;;;;;;;5034202;28;19909;-75
2023/02/05 08:56:51;;;;;;;;;;;;;;;;;;5034020;28;19909;-75
2023/02/05 08:59:17;;;;;;;;;;;;;;;;;;5034074;28;20346;-75
2023/02/05 09:01:43;;;;;;;;;;;;;;;;;;5034006;28;19909;-75
2023/02/05 09:04:09;;;;;;;;;;;;;;;;;;5034227;28;19909;-74
2023/02/05 09:06:35;;;;;;;;;;;;;;;;;;5033614;28;19909;-73
2023/02/05 09:09:01;;;;;;;;;;;;;;;;;;5034069;28;19916;-75
2023/02/05 09:11:29;;;;;;;;;;;;;;;;;;5033900;28;19910;-75
2023/02/05 09:13:55;;;;;;;;;;;;;;;;;;5032347;28;19918;-75
2023/02/05 09:16:21;;;;;;;;;;;;;;;;;;5034249;28;19913;-75
2023/02/05 09:18:47;;;;;;;;;;;;;;;;;;5033833;28;19920;-74
2023/02/05 09:21:13;;;;;;;;;;;;;;;;;;5033881;28;19913;-75
2023/02/05 09:23:38;;;;;;;;;;;;;;;;;;5033554;28;20007;-74
2023/02/05 09:26:05;;;;;;;;;;;;;;;;;;5034161;28;20368;-75
2023/02/05 09:28:31;;;;;;;;;;;;;;;;;;5033703;28;19909;-75
2023/02/05 09:30:57;;;;;;;;;;;;;;;;;;5033760;28;19944;-76
2023/02/05 09:33:23;;;;;;;;;;;;;;;;;;5033667;28;19916;-76
2023/02/05 09:35:49;;;;;;;;;;;;;;;;;;5034050;28;20001;-75
2023/02/05 09:38:17;;;;;;;;;;;;;;;;;;5033672;28;19945;-74
2023/02/05 09:40:42;;;;;;;;;;;;;;;;;;5033685;28;19936;-74
2023/02/05 09:43:08;;;;;;;;;;;;;;;;;;5033569;28;20369;-74
2023/02/05 09:45:34;;;;;;;;;;;;;;;;;;5033570;28;19909;-75
2023/02/05 09:48:00;;;;;;;;;;;;;;;;;;5033577;28;19909;-75
2023/02/05 09:50:28;;;;;;;;;;;;;;;;;;5033543;28;20380;-73
2023/02/05 09:52:54;;;;;;;;;;;;;;;;;;5032253;28;19909;-76
2023/02/05 09:55:20;;;;;;;;;;;;;;;;;;5033902;28;20362;-74
2023/02/05 09:57:46;;;;;;;;;;;;;;;;;;5033479;28;19917;-74
2023/02/05 10:00:12;;;;;;;;;;;;;;;;;;5032139;28;19913;-75
2023/02/05 10:02:38;;;;;;;;;;;;;;;;;;5033380;28;19948;-74
2023/02/05 10:05:04;;;;;;;;;;;;;;;;;;5033761;28;19909;-75
2023/02/05 10:07:30;;;;;;;;;;;;;;;;;;5033340;28;19909;-75
2023/02/05 10:09:56;;;;;;;;;;;;;;;;;;5033350;28;19956;-74
2023/02/05 10:12:22;;;;;;;;;;;;;;;;;;5033268;28;20078;-75
2023/02/05 10:14:48;;;;;;;;;;;;;;;;;;5033203;28;19917;-75
2023/02/05 10:17:14;;;;;;;;;;;;;;;;;;5033556;28;19917;-75
2023/02/05 10:19:40;;;;;;;;;;;;;;;;;;5035180;28;19916;-73
2023/02/05 10:22:10;;;;;;;;;;;;;;;;;;5036985;28;19952;-75
2023/02/05 10:24:36;;;;;;;;;;;;;;;;;;5037195;28;19959;-75
2023/02/05 10:27:02;;;;;;;;;;;;;;;;;;5036967;28;19917;-74
2023/02/05 10:29:28;;;;;;;;;;;;;;;;;;5037030;28;19933;-75
2023/02/05 10:31:54;;;;;;;;;;;;;;;;;;5037026;28;20396;-75
2023/02/05 10:34:20;;;;;;;;;;;;;;;;;;5036890;28;19917;-74
2023/02/05 10:36:46;;;;;;;;;;;;;;;;;;5036899;28;19909;-74
2023/02/05 10:39:12;;;;;;;;;;;;;;;;;;5036937;28;19916;-75
2023/02/05 10:41:38;;;;;;;;;;;;;;;;;;5036459;28;20008;-75
2023/02/05 10:44:04;;;;;;;;;;;;;;;;;;5036736;28;20352;-74
2023/02/05 10:46:29;;;;;;;;;;;;;;;;;;5036614;28;19910;-75
2023/02/05 10:48:55;;;;;;;;;;;;;;;;;;5036500;28;19909;-75
2023/02/05 10:51:21;;;;;;;;;;;;;;;;;;5036843;28;19909;-75
2023/02/05 10:53:47;;;;;;;;;;;;;;;;;;5036450;28;19913;-75
2023/02/05 10:56:13;;;;;;;;;;;;;;;;;;5036545;28;19959;-75
2023/02/05 10:58:39;;;;;;;;;;;;;;;;;;5036047;28;19998;-74
2023/02/05 11:01:05;;;;;;;;;;;;;;;;;;5036204;28;19917;-75
2023/02/05 11:03:31;;;;;;;;;;;;;;;;;;5036381;28;19913;-76
2023/02/05 11:05:57;;;;;;;;;;;;;;;;;;5036544;28;20377;-75
2023/02/05 11:08:23;;;;;;;;;;;;;;;;;;5036125;28;19952;-75
2023/02/05 11:10:49;;;;;;;;;;;;;;;;;;5036211;28;20265;-75
2023/02/05 11:13:15;;;;;;;;;;;;;;;;;;5036218;28;20365;-72
2023/02/05 11:15:41;;;;;;;;;;;;;;;;;;5035712;28;19967;-75
2023/02/05 11:18:08;;;;;;;;;;;;;;;;;;5035980;28;19910;-74
2023/02/05 11:20:34;;;;;;;;;;;;;;;;;;5036047;28;19915;-75
2023/02/05 11:23:00;;;;;;;;;;;;;;;;;;5035797;28;19955;-75
2023/02/05 11:25:28;;;;;;;;;;;;;;;;;;5035909;28;20338;-75
2023/02/05 11:27:54;;;;;;;;;;;;;;;;;;5035825;28;19913;-73
2023/02/05 11:30:20;;;;;;;;;;;;;;;;;;5035643;28;19976;-74
2023/02/05 11:32:45;;;;;;;;;;;;;;;;;;5035741;28;19916;-73
2023/02/05 11:35:11;;;;;;;;;;;;;;;;;;5035688;28;19909;-73
2023/02/05 11:37:37;;;;;;;;;;;;;;;;;;5034298;28;20400;-74
2023/02/05 11:40:03;;;;;;;;;;;;;;;;;;5035967;28;19909;-74
2023/02/05 11:42:29;;;;;;;;;;;;;;;;;;5035816;28;20011;-73
2023/02/05 11:44:55;;;;;;;;;;;;;;;;;;5034224;28;19964;-73
2023/02/05 11:47:21;;;;;;;;;;;;;;;;;;5034198;28;19909;-73
2023/02/05 11:49:47;;;;;;;;;;;;;;;;;;5035432;28;19913;-75
2023/02/05 11:52:13;;;;;;;;;;;;;;;;;;5035392;28;19983;-75
2023/02/05 11:54:39;;;;;;;;;;;;;;;;;;5035514;28;20377;-73
2023/02/05 11:57:05;;;;;;;;;;;;;;;;;;5035242;28;19935;-74
2023/02/05 11:59:31;;;;;;;;;;;;;;;;;;5035243;28;19910;-73
2023/02/05 12:01:57;;;;;;;;;;;;;;;;;;5035330;28;19913;-74
2023/02/05 12:04:23;;;;;;;;;;;;;;;;;;5033643;28;19920;-74
2023/02/05 12:06:49;;;;;;;;;;;;;;;;;;5035092;28;19909;-74
2023/02/05 12:09:15;;;;;;;;;;;;;;;;;;5035051;28;19999;-75
2023/02/05 12:12:02;;;;;;;;;;;;;;;;;;5035008;28;20002;-74
2023/02/05 12:14:28;;;;;;;;;;;;;;;;;;5034836;28;19918;-76
2023/02/05 12:16:54;;;;;;;;;;;;;;;;;;5034887;28;19916;-75
2023/02/05 12:19:20;;;;;;;;;;;;;;;;;;5034847;28;20309;-74
2023/02/05 12:21:46;;;;;;;;;;;;;;;;;;5034917;28;19913;-73
2023/02/05 12:24:12;;;;;;;;;;;;;;;;;;5034754;28;19909;-74
2023/02/05 12:26:38;;;;;;;;;;;;;;;;;;5034682;28;19946;-73
2023/02/05 12:29:03;;;;;;;;;;;;;;;;;;5034590;28;20263;-74
2023/02/05 12:31:29;;;;;;;;;;;;;;;;;;5034758;28;19909;-75
2023/02/05 12:33:55;;;;;;;;;;;;;;;;;;5034572;28;19909;-74
2023/02/05 12:36:21;;;;;;;;;;;;;;;;;;5034600;28;19963;-75
2023/02/05 12:38:47;;;;;;;;;;;;;;;;;;5034527;28;19913;-76
2023/02/05 12:41:13;;;;;;;;;;;;;;;;;;5034051;28;20336;-75
2023/02/05 12:43:39;;;;;;;;;;;;;;;;;;5034662;28;20426;-74
2023/02/05 12:46:05;;;;;;;;;;;;;;;;;;5034349;28;19909;-75
2023/02/05 12:48:33;;;;;;;;;;;;;;;;;;5034411;28;19979;-74
2023/02/05 12:50:59;;;;;;;;;;;;;;;;;;5034365;28;20019;-75
2023/02/05 12:53:26;;;;;;;;;;;;;;;;;;5034592;28;19968;-74
2023/02/05 12:55:51;;;;;;;;;;;;;;;;;;5034106;28;19916;-76
2023/02/05 12:58:17;;;;;;;;;;;;;;;;;;5032865;28;19909;-76
2023/02/05 13:00:43;;;;;;;;;;;;;;;;;;5034123;28;20278;-75
2023/02/05 13:03:09;;;;;;;;;;;;;;;;;;5034531;28;20254;-74
2023/02/05 13:05:35;;;;;;;;;;;;;;;;;;5034087;28;19909;-75
2023/02/05 13:08:01;;;;;;;;;;;;;;;;;;5034057;28;19910;-74
2023/02/05 13:10:27;;;;;;;;;;;;;;;;;;5032667;28;19955;-74
2023/02/05 13:12:53;;;;;;;;;;;;;;;;;;5033896;28;19917;-74
2023/02/05 13:15:19;;;;;;;;;;;;;;;;;;5033760;28;20285;-73
2023/02/05 13:17:45;;;;;;;;;;;;;;;;;;5034193;28;19916;-73
2023/02/05 13:20:11;;;;;;;;;;;;;;;;;;5032602;28;19971;-74
2023/02/05 13:30:51;;;;;;;;;;;;;;;;;;5033464;28;19967;-73
2023/02/05 13:33:17;;;;;;;;;;;;;;;;;;5033604;28;19932;-74
2023/02/05 13:35:43;;;;;;;;;;;;;;;;;;5033864;28;19917;-75
2023/02/05 13:38:09;;;;;;;;;;;;;;;;;;5033686;28;19913;-74
2023/02/05 13:40:35;;;;;;;;;;;;;;;;;;5032341;28;19916;-75
2023/02/05 13:43:01;;;;;;;;;;;;;;;;;;5033651;28;19909;-73
2023/02/05 13:45:27;;;;;;;;;;;;;;;;;;5033613;28;19909;-74
2023/02/05 13:47:53;;;;;;;;;;;;;;;;;;5033902;28;19939;-74
2023/02/05 13:50:19;;;;;;;;;;;;;;;;;;5032267;28;20004;-75
2023/02/05 13:52:45;;;;;;;;;;;;;;;;;;5034137;28;20384;-74
2023/02/05 13:55:11;;;;;;;;;;;;;;;;;;5037504;28;19909;-74
2023/02/05 13:57:37;;;;;;;;;;;;;;;;;;5037588;28;19960;-74
2023/02/05 14:00:03;;;;;;;;;;;;;;;;;;5037557;28;19958;-74
2023/02/05 14:02:29;;;;;;;;;;;;;;;;;;5037791;28;20289;-73
2023/02/05 14:04:55;;;;;;;;;;;;;;;;;;5036054;28;20435;-74
2023/02/05 14:07:21;;;;;;;;;;;;;;;;;;5037556;28;19910;-74
2023/02/05 14:09:47;;;;;;;;;;;;;;;;;;5037331;28;19963;-74
2023/02/05 14:12:13;;;;;;;;;;;;;;;;;;5037161;28;19921;-73
2023/02/05 14:14:40;;;;;;;;;;;;;;;;;;5037040;28;19917;-73
2023/02/05 14:17:06;;;;;;;;;;;;;;;;;;5037456;28;20428;-74
2023/02/05 14:19:32;;;;;;;;;;;;;;;;;;5037369;28;19951;-73
2023/02/05 14:21:58;;;;;;;;;;;;;;;;;;5035773;28;19909;-73
2023/02/05 14:24:24;;;;;;;;;;;;;;;;;;5037258;28;19924;-73
2023/02/05 14:26:50;;;;;;;;;;;;;;;;;;5037363;28;20393;-73
2023/02/05 14:29:16;;;;;;;;;;;;;;;;;;5036944;28;19943;-74
2023/02/05 14:31:42;;;;;;;;;;;;;;;;;;5036911;28;19952;-73
2023/02/05 14:34:08;;;;;;;;;;;;;;;;;;5036761;28;19918;-72
2023/02/05 14:36:34;;;;;;;;;;;;;;;;;;5036985;28;19909;-74
2023/02/05 14:39:00;;;;;;;;;;;;;;;;;;5036743;28;19931;-74
2023/02/05 14:41:26;;;;;;;;;;;;;;;;;;5036764;28;19917;-75
2023/02/05 14:43:52;;;;;;;;;;;;;;;;;;5036584;28;20305;-74
2023/02/05 14:46:18;;;;;;;;;;;;;;;;;;5035353;28;19909;-74
2023/02/05 14:48:44;;;;;;;;;;;;;;;;;;5036866;28;19917;-74
2023/02/05 14:51:10;;;;;;;;;;;;;;;;;;5036568;28;19963;-72
2023/02/05 14:53:36;;;;;;;;;;;;;;;;;;5036438;28;19913;-73
2023/02/05 14:56:02;;;;;;;;;;;;;;;;;;5036387;28;19913;-73
2023/02/05 14:58:28;;;;;;;;;;;;;;;;;;5036734;28;20329;-73
2023/02/05 15:00:54;;;;;;;;;;;;;;;;;;5036395;28;19924;-74
2023/02/05 15:03:20;;;;;;;;;;;;;;;;;;5036398;28;19909;-74
2023/02/05 15:05:47;;;;;;;;;;;;;;;;;;5035567;28;19955;-73
2023/02/05 15:08:13;;;;;;;;;;;;;;;;;;5034966;28;20369;-73
2023/02/05 15:10:39;;;;;;;;;;;;;;;;;;5036476;28;19909;-73
2023/02/05 15:13:05;;;;;;;;;;;;;;;;;;5036076;28;19963;-72
2023/02/05 15:15:31;;;;;;;;;;;;;;;;;;5035912;28;19924;-73
2023/02/05 15:17:57;;;;;;;;;;;;;;;;;;5036272;28;19949;-73
2023/02/05 15:20:23;;;;;;;;;;;;;;;;;;5036031;28;19965;-74
2023/02/05 15:22:51;;;;;;;;;;;;;;;;;;5035207;28;20216;-72
2023/02/05 15:25:17;;;;;;;;;;;;;;;;;;5035912;28;19916;-74
2023/02/05 15:27:43;;;;;;;;;;;;;;;;;;5036108;28;19955;-74
2023/02/05 15:30:09;;;;;;;;;;;;;;;;;;5035819;28;19917;-75
2023/02/05 15:32:35;;;;;;;;;;;;;;;;;;5035712;28;19919;-73
2023/02/05 15:35:01;;;;;;;;;;;;;;;;;;5035837;28;19932;-73
2023/02/05 15:37:27;;;;;;;;;;;;;;;;;;5035724;28;19909;-74
2023/02/05 15:39:53;;;;;;;;;;;;;;;;;;5035653;28;19963;-73
2023/02/05 15:42:19;;;;;;;;;;;;;;;;;;5035805;28;20004;-73
2023/02/05 15:44:45;;;;;;;;;;;;;;;;;;5035696;28;19960;-73
2023/02/05 15:47:11;;;;;;;;;;;;;;;;;;5035473;28;19909;-74
2023/02/05 15:49:37;;;;;;;;;;;;;;;;;;5035522;28;19999;-73
2023/02/05 15:52:03;;;;;;;;;;;;;;;;;;5035311;28;20010;-73
2023/02/05 15:54:29;;;;;;;;;;;;;;;;;;5035367;28;19915;-73
2023/02/05 15:56:55;;;;;;;;;;;;;;;;;;5035259;28;20378;-73
2023/02/05 15:59:21;;;;;;;;;;;;;;;;;;5035497;28;19909;-73
2023/02/05 16:01:47;;;;;;;;;;;;;;;;;;5035199;28;19959;-73
2023/02/05 16:04:13;;;;;;;;;;;;;;;;;;5035235;28;19959;-73
2023/02/05 16:06:39;;;;;;;;;;;;;;;;;;5033887;28;19980;-72
2023/02/05 16:09:04;;;;;;;;;;;;;;;;;;5035410;28;20373;-73
2023/02/05 16:11:30;;;;;;;;;;;;;;;;;;5035011;28;19913;-72
2023/02/05 16:13:56;;;;;;;;;;;;;;;;;;5034671;28;19963;-73
2023/02/05 16:16:22;;;;;;;;;;;;;;;;;;5034254;28;19920;-73
2023/02/05 16:18:48;;;;;;;;;;;;;;;;;;5034977;28;20285;-73
2023/02/05 16:21:14;;;;;;;;;;;;;;;;;;5035017;28;19909;-72
2023/02/05 16:23:40;;;;;;;;;;;;;;;;;;5034761;28;19916;-74
2023/02/05 16:26:06;;;;;;;;;;;;;;;;;;5034906;28;20032;-74
2023/02/05 16:28:32;;;;;;;;;;;;;;;;;;5034933;28;19909;-73
2023/02/05 16:30:58;;;;;;;;;;;;;;;;;;5034816;28;19909;-73
2023/02/05 16:33:24;;;;;;;;;;;;;;;;;;5034520;28;19920;-73
2023/02/05 16:35:50;;;;;;;;;;;;;;;;;;5034458;28;19999;-72
2023/02/05 16:38:25;;;;;;;;;;;;;;;;;;5153228;27;20361;-73
2023/02/05 16:40:51;;;;;;;;;;;;;;;;;;5153049;27;20282;-74
2023/02/05 16:43:16;;;;;;;;;;;;;;;;;;5152879;27;19908;-73
2023/02/05 16:45:42;;;;;;;;;;;;;;;;;;5152704;27;19914;-73
2023/02/05 16:48:08;;;;;;;;;;;;;;;;;;5152850;27;19908;-74
2023/02/05 16:50:35;;;;;;;;;;;;;;;;;;5152872;27;20376;-73